createdAt,value
2023-03-02T00:01:55.845Z,96239.28
2023-03-02T00:04:27.445Z,96235.69
2023-03-02T00:07:01.578Z,96239.88
2023-03-02T00:09:30.514Z,96229.53
2023-03-02T00:12:00.610Z,96240.09
2023-03-02T00:14:29.190Z,96230.75
2023-03-02T00:16:57.878Z,96234.06
2023-03-02T00:19:26.390Z,96229.06
2023-03-02T00:21:54.963Z,96228.47
2023-03-02T00:24:23.309Z,96217.56
2023-03-02T00:26:51.642Z,96229.31
2023-03-02T00:29:26.548Z,96220.19
2023-03-02T00:31:55.184Z,96221.09
2023-03-02T00:34:23.621Z,96222.53
2023-03-02T00:36:52.774Z,96229.31
2023-03-02T00:39:21.149Z,96230.84
2023-03-02T00:41:49.665Z,96219.69
2023-03-02T00:44:18.568Z,96216.38
2023-03-02T00:46:48.329Z,96220.88
2023-03-02T00:49:16.687Z,96224.44
2023-03-02T00:51:45.032Z,96226.31
2023-03-02T00:54:13.599Z,96220.66
2023-03-02T00:56:41.927Z,96218.03
2023-03-02T00:59:26.212Z,96202.63
2023-03-02T01:01:58.304Z,96206.41
2023-03-02T01:04:29.764Z,96208.91
2023-03-02T01:06:58.303Z,96206.41
2023-03-02T01:09:27.178Z,96206.41
2023-03-02T01:11:55.780Z,96200.25
2023-03-02T01:14:25.170Z,96198.38
2023-03-02T01:16:54.866Z,96194.44
2023-03-02T01:19:23.179Z,96197.16
2023-03-02T01:21:51.704Z,96189.81
2023-03-02T01:24:20.073Z,96183.03
2023-03-02T01:26:48.412Z,96182.47
2023-03-02T01:29:16.701Z,96181.16
2023-03-02T01:31:45.130Z,96180.78
2023-03-02T01:34:14.830Z,96170.34
2023-03-02T01:36:45.577Z,96184.00
2023-03-02T01:39:15.963Z,96188.97
2023-03-02T01:41:45.587Z,96190.03
2023-03-02T01:44:35.602Z,96179.84
2023-03-02T01:47:04.586Z,96178.19
2023-03-02T01:49:37.209Z,96180.69
2023-03-02T01:52:05.840Z,96181.50
2023-03-02T01:54:34.256Z,96180.91
2023-03-02T01:57:04.939Z,96176.38
2023-03-02T01:59:37.422Z,96180.31
2023-03-02T02:02:10.294Z,96179.56
2023-03-02T02:04:43.722Z,96174.81
2023-03-02T02:07:12.176Z,96169.75
2023-03-02T02:09:44.611Z,96159.31
2023-03-02T02:12:14.959Z,96165.69
2023-03-02T02:14:44.826Z,96173.41
2023-03-02T02:17:14.022Z,96177.44
2023-03-02T02:19:55.947Z,96176.84
2023-03-02T02:22:33.619Z,96174.03
2023-03-02T02:25:07.450Z,96170.47
2023-03-02T02:27:39.378Z,96170.47
2023-03-02T02:30:09.385Z,96172.25
2023-03-02T02:32:40.613Z,96170.72
2023-03-02T02:35:16.311Z,96168.00
2023-03-02T02:37:47.555Z,96168.69
2023-03-02T02:40:19.877Z,96163.59
2023-03-02T02:42:52.281Z,96163.34
2023-03-02T02:45:24.293Z,96158.22
2023-03-02T02:47:54.059Z,96154.19
2023-03-02T02:50:26.064Z,96157.03
2023-03-02T02:53:00.936Z,96152.66
2023-03-02T02:55:31.196Z,96155.38
2023-03-02T02:58:09.202Z,96152.28
2023-03-02T03:00:38.336Z,96140.66
2023-03-02T03:03:29.530Z,96150.34
2023-03-02T03:05:58.854Z,96150.34
2023-03-02T03:09:01.637Z,96150.25
2023-03-02T03:11:33.220Z,96144.81
2023-03-02T03:14:10.367Z,96142.56
2023-03-02T03:16:41.419Z,96139.63
2023-03-02T03:19:16.905Z,96142.81
2023-03-02T03:21:53.223Z,96132.16
2023-03-02T03:24:22.287Z,96135.13
2023-03-02T03:26:51.216Z,96135.00
2023-03-02T03:29:24.470Z,96145.78
2023-03-02T03:31:53.921Z,96132.75
2023-03-02T03:34:22.774Z,96137.03
2023-03-02T03:36:51.260Z,96137.97
2023-03-02T03:39:20.271Z,96129.31
2023-03-02T03:41:48.565Z,96133.31
2023-03-02T03:44:16.938Z,96130.47
2023-03-02T03:46:46.986Z,96126.09
2023-03-02T03:49:15.495Z,96131.19
2023-03-02T03:51:43.873Z,96130.22
2023-03-02T03:54:12.336Z,96134.41
2023-03-02T03:56:43.263Z,96132.50
2023-03-02T03:59:14.707Z,96133.31
2023-03-02T04:01:45.607Z,96140.31
2023-03-02T04:04:17.417Z,96132.72
2023-03-02T04:06:45.884Z,96130.94
2023-03-02T04:09:15.552Z,96127.41
2023-03-02T04:11:45.294Z,96116.28
2023-03-02T04:14:14.242Z,96116.88
2023-03-02T04:16:45.194Z,96107.50
2023-03-02T04:19:17.492Z,96114.25
2023-03-02T04:21:48.112Z,96113.31
2023-03-02T04:24:18.054Z,96119.38
2023-03-02T04:26:47.588Z,96124.44
2023-03-02T04:29:16.707Z,96116.41
2023-03-02T04:31:45.028Z,96124.00
2023-03-02T04:34:13.331Z,96121.41
2023-03-02T04:36:43.107Z,96117.81
2023-03-02T04:39:13.736Z,96124.56
2023-03-02T04:41:42.095Z,96123.63
2023-03-02T04:44:10.482Z,96128.63
2023-03-02T04:46:49.844Z,96120.94
2023-03-02T04:49:19.928Z,96133.09
2023-03-02T04:51:50.346Z,96132.38
2023-03-02T04:54:22.652Z,96122.81
2023-03-02T04:56:51.673Z,96132.53
2023-03-02T04:59:24.059Z,96126.34
2023-03-02T05:01:52.686Z,96127.53
2023-03-02T05:04:21.081Z,96114.00
2023-03-02T05:06:51.033Z,96118.66
2023-03-02T05:09:20.079Z,96124.91
2023-03-02T05:11:48.365Z,96115.31
2023-03-02T05:14:16.774Z,96122.09
2023-03-02T05:16:45.082Z,96124.09
2023-03-02T05:19:13.842Z,96120.06
2023-03-02T05:21:42.464Z,96118.63
2023-03-02T05:24:13.519Z,96123.94
2023-03-02T05:26:42.472Z,96122.16
2023-03-02T05:29:11.086Z,96114.44
2023-03-02T05:31:42.367Z,96116.25
2023-03-02T05:34:13.528Z,96115.75
2023-03-02T05:36:42.125Z,96116.19
2023-03-02T05:39:12.362Z,96126.88
2023-03-02T05:41:42.363Z,96120.81
2023-03-02T05:44:12.120Z,96124.97
2023-03-02T05:46:41.621Z,96132.78
2023-03-02T05:49:10.674Z,96132.53
2023-03-02T05:51:39.055Z,96134.31
2023-03-02T05:54:07.422Z,96148.06
2023-03-02T05:56:37.199Z,96140.59
2023-03-02T05:59:05.733Z,96146.75
2023-03-02T06:01:35.534Z,96151.00
2023-03-02T06:04:04.281Z,96143.91
2023-03-02T06:06:34.106Z,96142.97
2023-03-02T06:09:02.844Z,96141.78
2023-03-02T06:11:31.239Z,96149.50
2023-03-02T06:14:00.903Z,96142.63
2023-03-02T06:16:29.353Z,96148.78
2023-03-02T06:18:57.664Z,96147.97
2023-03-02T06:21:27.927Z,96148.88
2023-03-02T06:23:56.428Z,96149.13
2023-03-02T06:26:24.823Z,96155.25
2023-03-02T06:28:54.004Z,96146.03
2023-03-02T06:31:24.063Z,96149.13
2023-03-02T06:33:52.431Z,96152.19
2023-03-02T06:36:20.841Z,96147.25
2023-03-02T06:38:49.192Z,96148.06
2023-03-02T06:41:17.573Z,96150.34
2023-03-02T06:43:48.486Z,96156.75
2023-03-02T06:46:16.886Z,96153.91
2023-03-02T06:48:46.576Z,96156.06
2023-03-02T06:51:14.914Z,96155.84
2023-03-02T06:53:43.250Z,96161.06
2023-03-02T06:56:11.610Z,96157.50
2023-03-02T06:58:40.061Z,96159.88
2023-03-02T07:01:08.892Z,96161.06
2023-03-02T07:03:37.719Z,96165.34
2023-03-02T07:06:08.445Z,96153.84
2023-03-02T07:08:36.985Z,96157.53
2023-03-02T07:11:10.677Z,96164.78
2023-03-02T07:13:39.293Z,96160.16
2023-03-02T07:16:09.241Z,96155.66
2023-03-02T07:18:37.881Z,96155.41
2023-03-02T07:21:07.855Z,96153.06
2023-03-02T07:23:36.219Z,96164.66
2023-03-02T07:26:08.413Z,96158.72
2023-03-02T07:28:39.328Z,96155.19
2023-03-02T07:31:07.935Z,96157.91
2023-03-02T07:33:39.856Z,96156.09
2023-03-02T07:36:10.350Z,96152.56
2023-03-02T07:38:39.824Z,96149.13
2023-03-02T07:41:10.317Z,96160.38
2023-03-02T07:43:39.164Z,96159.31
2023-03-02T07:46:08.002Z,96155.53
2023-03-02T07:48:36.850Z,96150.19
2023-03-02T07:51:07.351Z,96153.66
2023-03-02T07:53:37.110Z,96156.25
2023-03-02T07:56:09.506Z,96154.22
2023-03-02T07:58:38.453Z,96157.03
2023-03-02T08:01:06.798Z,96159.78
2023-03-02T08:03:35.515Z,96161.22
2023-03-02T08:06:06.864Z,96170.38
2023-03-02T08:08:35.794Z,96171.44
2023-03-02T08:11:09.660Z,96174.50
2023-03-02T08:13:38.788Z,96174.03
2023-03-02T08:16:09.188Z,96175.34
2023-03-02T08:18:38.521Z,96181.97
2023-03-02T08:21:12.842Z,96179.56
2023-03-02T08:23:41.649Z,96182.41
2023-03-02T08:26:13.872Z,96185.38
2023-03-02T08:28:43.278Z,96186.78
2023-03-02T08:31:11.682Z,96195.66
2023-03-02T08:33:40.160Z,96198.22
2023-03-02T08:36:12.077Z,96188.94
2023-03-02T08:38:40.698Z,96188.22
2023-03-02T08:41:14.802Z,96190.94
2023-03-02T08:43:43.257Z,96191.38
2023-03-02T08:46:13.269Z,96181.28
2023-03-02T08:48:42.024Z,96180.19
2023-03-02T08:51:13.455Z,96190.41
2023-03-02T08:53:45.318Z,96189.78
2023-03-02T08:56:23.040Z,96190.19
2023-03-02T08:58:51.986Z,96189.97
2023-03-02T09:01:22.916Z,96192.75
2023-03-02T09:03:51.682Z,96182.06
2023-03-02T09:06:20.627Z,96194.63
2023-03-02T09:08:49.382Z,96185.94
2023-03-02T09:11:19.164Z,96190.78
2023-03-02T09:13:47.500Z,96200.44
2023-03-02T09:16:16.837Z,96191.94
2023-03-02T09:18:45.199Z,96197.06
2023-03-02T09:21:13.808Z,96193.34
2023-03-02T09:23:42.228Z,96197.19
2023-03-02T09:26:10.883Z,96197.06
2023-03-02T09:28:40.566Z,96201.06
2023-03-02T09:31:10.031Z,96201.38
2023-03-02T09:33:38.631Z,96196.31
2023-03-02T09:36:08.337Z,96201.75
2023-03-02T09:38:36.661Z,96197.84
2023-03-02T09:41:28.110Z,96207.06
2023-03-02T09:44:05.162Z,96207.25
2023-03-02T09:46:37.879Z,96206.75
2023-03-02T09:49:17.990Z,96213.16
2023-03-02T09:51:51.503Z,96201.03
2023-03-02T09:54:25.450Z,96211.28
2023-03-02T09:56:57.507Z,96205.09
2023-03-02T09:59:30.067Z,96206.88
2023-03-02T10:02:04.258Z,96203.59
2023-03-02T10:04:38.684Z,96209.69
2023-03-02T10:07:14.050Z,96207.47
2023-03-02T10:09:43.551Z,96209.69
2023-03-02T10:12:32.433Z,96211.31
2023-03-02T10:15:09.056Z,96206.06
2023-03-02T10:17:52.914Z,96205.94
2023-03-02T10:20:34.066Z,96203.88
2023-03-02T10:23:17.522Z,96207.88
2023-03-02T10:25:53.286Z,96203.03
2023-03-02T10:28:23.938Z,96198.47
2023-03-02T10:30:59.848Z,96206.34
2023-03-02T10:33:29.398Z,96192.78
2023-03-02T10:35:58.298Z,96203.81
2023-03-02T10:38:26.625Z,96204.47
2023-03-02T10:41:00.696Z,96198.50
2023-03-02T10:43:35.979Z,96201.81
2023-03-02T10:46:08.636Z,96201.84
2023-03-02T10:48:49.669Z,96204.06
2023-03-02T10:51:26.814Z,96199.34
2023-03-02T10:54:11.006Z,96199.22
2023-03-02T10:56:40.106Z,96190.91
2023-03-02T10:59:39.654Z,96194.06
2023-03-02T11:02:18.727Z,96195.69
2023-03-02T11:04:47.172Z,96194.00
2023-03-02T11:07:18.708Z,96178.34
2023-03-02T11:09:58.626Z,96182.28
2023-03-02T11:12:27.075Z,96191.22
2023-03-02T11:15:22.820Z,96174.63
2023-03-02T11:17:57.506Z,96184.28
2023-03-02T11:20:30.437Z,96183.66
2023-03-02T11:23:09.589Z,96179.63
2023-03-02T11:25:40.378Z,96178.94
2023-03-02T11:28:17.632Z,96172.19
2023-03-02T11:30:49.267Z,96176.31
2023-03-02T11:33:25.870Z,96172.19
2023-03-02T11:35:58.283Z,96166.50
2023-03-02T11:38:29.524Z,96164.78
2023-03-02T11:41:01.458Z,96168.66
2023-03-02T11:43:29.980Z,96171.75
2023-03-02T11:46:01.787Z,96166.16
2023-03-02T11:48:36.490Z,96168.03
2023-03-02T11:51:07.828Z,96174.06
2023-03-02T11:53:43.424Z,96171.47
2023-03-02T11:56:11.946Z,96170.34
2023-03-02T11:58:42.741Z,96169.97
2023-03-02T12:01:18.816Z,96159.91
2023-03-02T12:03:48.697Z,96156.72
2023-03-02T12:06:35.315Z,96155.88
2023-03-02T12:09:33.175Z,96162.41
2023-03-02T12:12:21.254Z,96153.25
2023-03-02T12:14:50.452Z,96148.00
2023-03-02T12:17:32.857Z,96142.59
2023-03-02T12:20:26.979Z,96140.25
2023-03-02T12:23:08.691Z,96139.94
2023-03-02T12:25:51.809Z,96135.91
2023-03-02T12:28:30.657Z,96134.97
2023-03-02T12:31:13.998Z,96132.34
2023-03-02T12:33:49.406Z,96134.66
2023-03-02T12:36:31.289Z,96128.91
2023-03-02T12:39:24.009Z,96122.28
2023-03-02T12:42:10.712Z,96125.28
2023-03-02T12:44:53.529Z,96124.78
2023-03-02T12:47:27.246Z,96116.88
2023-03-02T12:49:58.749Z,96124.63
2023-03-02T12:52:30.948Z,96114.03
2023-03-02T12:55:05.624Z,96122.97
2023-03-02T12:57:34.665Z,96113.53
2023-03-02T13:00:04.968Z,96110.22
2023-03-02T13:02:35.464Z,96112.00
2023-03-02T13:05:06.916Z,96107.66
2023-03-02T13:07:51.398Z,96108.03
2023-03-02T13:10:28.089Z,96108.75
2023-03-02T13:12:59.189Z,96106.59
2023-03-02T13:15:31.302Z,96104.41
2023-03-02T13:18:01.287Z,96097.28
2023-03-02T13:20:32.194Z,96103.25
2023-03-02T13:23:03.269Z,96102.56
2023-03-02T13:25:33.764Z,96102.88
2023-03-02T13:28:07.916Z,96099.22
2023-03-02T13:30:43.471Z,96097.84
2023-03-02T13:33:23.454Z,96092.81
2023-03-02T13:35:52.428Z,96095.41
2023-03-02T13:38:24.078Z,96087.53
2023-03-02T13:40:54.305Z,96085.50
2023-03-02T13:43:25.681Z,96086.25
2023-03-02T13:45:56.903Z,96082.91
2023-03-02T13:48:25.626Z,96082.97
2023-03-02T13:50:57.385Z,96085.50
2023-03-02T13:53:30.126Z,96085.31
2023-03-02T13:56:01.244Z,96082.38
2023-03-02T13:58:30.747Z,96082.56
2023-03-02T14:00:59.166Z,96087.94
2023-03-02T14:03:29.992Z,96085.28
2023-03-02T14:06:00.087Z,96087.13
2023-03-02T14:08:29.897Z,96086.28
2023-03-02T14:11:01.025Z,96079.00
2023-03-02T14:13:37.114Z,96086.78
2023-03-02T14:16:06.165Z,96087.75
2023-03-02T14:18:39.344Z,96078.03
2023-03-02T14:21:12.659Z,96082.94
2023-03-02T14:23:42.657Z,96079.50
2023-03-02T14:26:31.686Z,96077.19
2023-03-02T14:29:06.257Z,96084.69
2023-03-02T14:31:35.247Z,96083.06
2023-03-02T14:34:03.955Z,96083.06
2023-03-02T14:36:34.642Z,96076.81
2023-03-02T14:39:15.533Z,96074.47
2023-03-02T14:41:53.417Z,96072.81
2023-03-02T14:44:23.586Z,96068.91
2023-03-02T14:46:52.980Z,96063.22
2023-03-02T14:49:21.866Z,96072.72
2023-03-02T14:51:59.132Z,96074.41
2023-03-02T14:54:37.938Z,96065.97
2023-03-02T14:57:08.109Z,96071.44
2023-03-02T14:59:36.410Z,96078.09
2023-03-02T15:02:15.879Z,96073.13
2023-03-02T15:04:56.108Z,96065.03
2023-03-02T15:07:26.214Z,96068.84
2023-03-02T15:09:56.619Z,96068.19
2023-03-02T15:12:25.612Z,96067.53
2023-03-02T15:14:54.045Z,96073.63
2023-03-02T15:17:22.513Z,96074.47
2023-03-02T15:19:50.833Z,96066.53
2023-03-02T15:22:19.173Z,96081.06
2023-03-02T15:24:47.579Z,96079.59
2023-03-02T15:27:17.329Z,96073.00
2023-03-02T15:29:46.238Z,96079.94
2023-03-02T15:32:14.894Z,96079.59
2023-03-02T15:34:43.712Z,96072.34
2023-03-02T15:37:12.806Z,96071.38
2023-03-02T15:39:44.484Z,96078.44
2023-03-02T15:42:14.848Z,96083.06
2023-03-02T15:44:46.086Z,96072.00
2023-03-02T15:47:14.598Z,96080.44
2023-03-02T15:49:42.958Z,96078.94
2023-03-02T15:52:12.682Z,96082.06
2023-03-02T15:54:41.193Z,96091.63
2023-03-02T15:57:10.144Z,96088.97
2023-03-02T15:59:38.823Z,96087.13
2023-03-02T16:02:09.273Z,96082.50
2023-03-02T16:04:37.970Z,96089.53
2023-03-02T16:07:06.487Z,96092.81
2023-03-02T16:09:34.830Z,96090.66
2023-03-02T16:12:03.195Z,96094.41
2023-03-02T16:14:31.590Z,96104.72
2023-03-02T16:16:59.940Z,96097.28
2023-03-02T16:19:29.676Z,96098.84
2023-03-02T16:21:58.092Z,96101.44
2023-03-02T16:24:26.603Z,96100.25
2023-03-02T16:26:54.993Z,96106.63
2023-03-02T16:29:24.217Z,96102.97
2023-03-02T16:31:52.851Z,96107.88
2023-03-02T16:34:21.254Z,96103.22
2023-03-02T16:36:51.041Z,96115.34
2023-03-02T16:39:19.401Z,96118.88
2023-03-02T16:41:47.896Z,96125.09
2023-03-02T16:44:16.291Z,96119.25
2023-03-02T16:46:44.846Z,96121.63
2023-03-02T16:49:14.336Z,96125.84
2023-03-02T16:51:43.426Z,96128.25
2023-03-02T16:54:16.737Z,96122.59
2023-03-02T16:56:47.328Z,96132.75
2023-03-02T16:59:15.995Z,96135.47
2023-03-02T17:01:44.382Z,96147.13
2023-03-02T17:04:12.796Z,96140.00
2023-03-02T17:06:59.587Z,96143.34
2023-03-02T17:09:30.059Z,96149.50
2023-03-02T17:11:58.452Z,96151.72
2023-03-02T17:14:28.080Z,96163.38
2023-03-02T17:16:57.946Z,96165.59
2023-03-02T17:19:29.624Z,96168.94
2023-03-02T17:21:59.350Z,96173.25
2023-03-02T17:24:29.670Z,96181.66
2023-03-02T17:26:58.679Z,96185.00
2023-03-02T17:29:28.243Z,96189.72
2023-03-02T17:31:57.095Z,96191.13
2023-03-02T17:34:31.336Z,96197.19
2023-03-02T17:37:01.824Z,96195.69
2023-03-02T17:39:33.391Z,96198.59
2023-03-02T17:42:01.948Z,96199.56
2023-03-02T17:44:34.844Z,96205.50
2023-03-02T17:47:08.238Z,96205.13
2023-03-02T17:49:40.817Z,96213.25
2023-03-02T17:52:09.401Z,96221.00
2023-03-02T17:54:42.875Z,96221.53
2023-03-02T17:57:13.669Z,96214.63
2023-03-02T17:59:42.711Z,96226.50
2023-03-02T18:02:12.137Z,96229.41
2023-03-02T18:04:40.593Z,96233.41
2023-03-02T18:07:10.247Z,96236.72
2023-03-02T18:09:40.646Z,96226.94
2023-03-02T18:12:09.466Z,96233.69
2023-03-02T18:14:39.273Z,96227.63
2023-03-02T18:17:09.430Z,96236.31
2023-03-02T18:19:38.172Z,96234.13
2023-03-02T18:22:06.717Z,96234.94
2023-03-02T18:24:35.045Z,96240.19
2023-03-02T18:27:04.907Z,96241.72
2023-03-02T18:29:33.850Z,96238.94
2023-03-02T18:32:02.388Z,96239.91
2023-03-02T18:34:30.800Z,96236.72
2023-03-02T18:36:59.160Z,96239.22
2023-03-02T18:39:27.554Z,96243.91
2023-03-02T18:41:55.920Z,96241.28
2023-03-02T18:44:28.057Z,96244.84
2023-03-02T18:46:58.726Z,96247.47
2023-03-02T18:49:27.613Z,96248.03
2023-03-02T18:51:56.690Z,96251.88
2023-03-02T18:54:25.547Z,96251.63
2023-03-02T18:56:53.936Z,96264.41
2023-03-02T18:59:22.259Z,96267.31
2023-03-02T19:01:52.017Z,96269.94
2023-03-02T19:04:23.706Z,96270.06
2023-03-02T19:06:52.018Z,96264.84
2023-03-02T19:09:20.685Z,96271.03
2023-03-02T19:11:49.123Z,96275.56
2023-03-02T19:14:17.564Z,96269.38
2023-03-02T19:16:46.351Z,96269.50
2023-03-02T19:19:16.155Z,96271.56
2023-03-02T19:21:44.490Z,96279.16
2023-03-02T19:24:12.886Z,96280.81
2023-03-02T19:26:41.397Z,96285.81
2023-03-02T19:29:09.765Z,96285.09
2023-03-02T19:31:39.323Z,96279.16
2023-03-02T19:34:08.062Z,96283.97
2023-03-02T19:36:37.741Z,96287.00
2023-03-02T19:39:06.649Z,96287.25
2023-03-02T19:41:35.124Z,96289.19
2023-03-02T19:44:03.514Z,96291.81
2023-03-02T19:46:31.860Z,96293.72
2023-03-02T19:49:00.350Z,96298.00
2023-03-02T19:51:29.726Z,96296.22
2023-03-02T19:53:59.464Z,96295.38
2023-03-02T19:56:32.894Z,96298.28
2023-03-02T19:59:01.824Z,96299.84
2023-03-02T20:01:30.197Z,96301.84
2023-03-02T20:04:00.200Z,96308.75
2023-03-02T20:06:31.513Z,96304.34
2023-03-02T20:09:03.830Z,96314.22
2023-03-02T20:11:32.352Z,96311.19
2023-03-02T20:14:02.889Z,96320.69
2023-03-02T20:16:32.848Z,96318.78
2023-03-02T20:19:03.275Z,96313.28
2023-03-02T20:21:32.284Z,96316.78
2023-03-02T20:24:02.525Z,96324.34
2023-03-02T20:26:31.037Z,96324.34
2023-03-02T20:29:01.817Z,96325.28
2023-03-02T20:31:33.622Z,96316.75
2023-03-02T20:34:02.930Z,96327.59
2023-03-02T20:36:34.033Z,96328.69
2023-03-02T20:39:09.297Z,96327.28
2023-03-02T20:41:38.054Z,96331.38
2023-03-02T20:44:14.666Z,96329.03
2023-03-02T20:46:46.594Z,96333.38
2023-03-02T20:49:16.417Z,96335.53
2023-03-02T20:51:52.636Z,96340.91
2023-03-02T20:54:24.105Z,96337.19
2023-03-02T20:56:52.535Z,96343.25
2023-03-02T20:59:21.707Z,96345.16
2023-03-02T21:01:50.704Z,96348.50
2023-03-02T21:04:19.082Z,96351.47
2023-03-02T21:06:47.548Z,96352.03
2023-03-02T21:09:17.991Z,96346.66
2023-03-02T21:11:48.436Z,96351.47
2023-03-02T21:14:17.136Z,96350.75
2023-03-02T21:16:45.977Z,96353.91
2023-03-02T21:19:17.315Z,96359.88
2023-03-02T21:21:46.226Z,96355.47
2023-03-02T21:24:17.580Z,96351.19
2023-03-02T21:26:49.766Z,96357.38
2023-03-02T21:29:19.341Z,96361.22
2023-03-02T21:31:47.860Z,96356.44
2023-03-02T21:34:18.976Z,96361.59
2023-03-02T21:36:47.707Z,96352.84
2023-03-02T21:39:17.382Z,96359.50
2023-03-02T21:41:47.219Z,96362.00
2023-03-02T21:44:15.643Z,96355.72
2023-03-02T21:46:44.077Z,96357.38
2023-03-02T21:49:16.193Z,96348.81
2023-03-02T21:51:44.920Z,96349.41
2023-03-02T21:54:13.666Z,96346.09
2023-03-02T21:56:43.181Z,96350.03
2023-03-02T21:59:13.240Z,96355.03
2023-03-02T22:01:41.837Z,96356.47
2023-03-02T22:04:13.402Z,96359.69
2023-03-02T22:06:42.100Z,96348.72
2023-03-02T22:09:12.552Z,96343.00
2023-03-02T22:11:41.110Z,96353.34
2023-03-02T22:14:14.950Z,96348.00
2023-03-02T22:16:47.472Z,96336.44
2023-03-02T22:19:28.772Z,96336.34
2023-03-02T22:21:59.944Z,96333.72
2023-03-02T22:24:30.382Z,96341.69
2023-03-02T22:27:01.201Z,96337.28
2023-03-02T22:29:38.488Z,96333.00
2023-03-02T22:32:21.431Z,96335.13
2023-03-02T22:34:51.897Z,96339.03
2023-03-02T22:37:22.334Z,96336.03
2023-03-02T22:39:54.344Z,96335.09
2023-03-02T22:42:25.686Z,96345.44
2023-03-02T22:45:09.990Z,96337.44
2023-03-02T22:47:38.415Z,96342.44
2023-03-02T22:50:21.706Z,96344.13
2023-03-02T22:52:52.056Z,96347.56
2023-03-02T22:55:36.237Z,96357.44
2023-03-02T22:58:28.943Z,96348.78
2023-03-02T23:01:00.461Z,96359.88
2023-03-02T23:03:38.012Z,96353.81
2023-03-02T23:06:23.032Z,96343.91
2023-03-02T23:08:51.906Z,96344.75
2023-03-02T23:11:22.537Z,96342.84
2023-03-02T23:13:52.272Z,96353.91
2023-03-02T23:16:24.929Z,96354.59
2023-03-02T23:18:55.448Z,96353.53
2023-03-02T23:21:28.289Z,96346.38
2023-03-02T23:23:58.283Z,96351.50
2023-03-02T23:26:27.662Z,96351.50
2023-03-02T23:28:56.045Z,96346.38
2023-03-02T23:31:25.817Z,96351.38
2023-03-02T23:33:54.451Z,96350.41
2023-03-02T23:36:22.786Z,96350.09
2023-03-02T23:38:51.768Z,96359.59
2023-03-02T23:41:20.123Z,96353.56
2023-03-02T23:43:48.505Z,96353.06
2023-03-02T23:46:17.298Z,96352.69
2023-03-02T23:48:47.806Z,96355.03
2023-03-02T23:51:16.645Z,96346.25
2023-03-02T23:53:45.872Z,96351.50
2023-03-02T23:56:14.539Z,96351.22
2023-03-02T23:58:42.882Z,96354.69
